Flight Track Log - Related Links

Times and Time Zones

All times are in EDT time to prevent confusion due to time zone crossing. See the ACA48 flight status page for this flight to view local times or setup timezone preferences in your user account.

Time Position Orientation Groundspeed Altitude Reporting Facility
EDT Latitude Longitude Course Direction KTS MPH feet Rate Location/Type
Fri 03:30:13 AM 21.3022 -157.9048 131° Southeast 181 208 1,100  Level FlightAware ADS-B
Fri 03:30:34 AM 21.2866 -157.8945 155° Southeast 212 244 1,600 1,800 Climbing FlightAware ADS-B
Fri 03:30:53 AM 21.2685 -157.8847 153° Southeast 236 272 2,300 2,250 Climbing FlightAware ADS-B
Fri 03:31:14 AM 21.2498 -157.8704 128° Southeast 254 292 3,100 2,550 Climbing FlightAware ADS-B
Fri 03:31:33 AM 21.2405 -157.8479 110° East 263 303 4,000 3,300 Climbing FlightAware ADS-B
Fri 03:31:54 AM 21.2322 -157.8250 111° Southeast 269 310 5,300 3,568 Climbing FlightAware ADS-B
Fri 03:32:10 AM 21.2241 -157.8023 111° Southeast 272 313 6,200 3,568 Climbing FlightAware ADS-B (PHKO / KOA)
Fri 03:32:31 AM 21.2148 -157.7760 111° Southeast 275 316 7,500 3,538 Climbing FlightAware ADS-B (PHKO / KOA)
Fri 03:32:49 AM 21.2070 -157.7523 104° East 281 323 8,500 3,130 Climbing FlightAware ADS-B (PHKO / KOA)
Fri 03:32:54 AM 21.2062 -157.7456 94° East 283 326 8,700 3,000 Climbing FlightAware ADS-B
Fri 03:33:01 AM 21.2067 -157.7361 82° East 284 327 9,100 3,176 Climbing FlightAware ADS-B (PHKO / KOA)
Fri 03:33:11 AM 21.2106 -157.7222 70° East 285 328 9,600 2,160 Climbing FlightAware ADS-B (PHKO / KOA)
Fri 03:33:51 AM 21.2304 -157.6657 69° East 331 381 10,900 1,747 Climbing FlightAware ADS-B (PHKO / KOA)
Fri 03:34:30 AM 21.2534 -157.6014 69° East 381 438 11,900 1,971 Climbing FlightAware ADS-B (PHKO / KOA)
Fri 03:35:01 AM 21.2740 -157.5445 69° East 401 461 13,200 2,557 Climbing FlightAware ADS-B (PHKO / KOA)
Fri 03:35:31 AM 21.2938 -157.4895 68° East 414 476 14,500 2,657 Climbing FlightAware ADS-B (PHKO / KOA)
Fri 03:36:11 AM 21.3228 -157.4108 68° East 430 495 16,300 2,600 Climbing FlightAware ADS-B (PHKO / KOA)
Fri 03:36:31 AM 21.3427 -157.3722 54° Northeast 440 506 17,100 2,368 Climbing FlightAware ADS-B (PHKO / KOA)
Fri 03:36:49 AM 21.3680 -157.3440 40° Northeast 444 511 17,800 2,097 Climbing FlightAware ADS-B (PHKO / KOA)
Fri 03:38:14 AM 21.5000 -157.2500 40° Northeast 460 529 20,700 2,069 Climbing Honolulu Center
Fri 03:39:14 AM 21.6167 -157.1667 34° Northeast 480 552 22,800 2,100 Climbing Honolulu Center
Fri 03:40:14 AM 21.7500 -157.1000 25° Northeast 500 575 24,900 1,950 Climbing Honolulu Center
Fri 03:41:14 AM 21.8667 -157.0333 28° Northeast 510 587 26,700 1,983 Climbing Honolulu Center
Fri 03:42:15 AM 21.9833 -156.9500 34° Northeast 520 598 28,900 2,182 Climbing Honolulu Center
Fri 03:43:15 AM 22.1167 -156.8833 25° Northeast 510 587 31,100 1,850 Climbing Honolulu Center
Fri 03:44:15 AM 22.2333 -156.8000 33° Northeast 510 587 32,600 1,450 Climbing Honolulu Center
Fri 03:45:15 AM 22.3500 -156.7333 28° Northeast 520 598 34,000 1,200 Climbing Honolulu Center
Fri 03:46:15 AM 22.4667 -156.6667 28° Northeast 500 575 35,000 500 Climbing Honolulu Center
Fri 03:47:15 AM 22.6000 -156.5833 30° Northeast 510 587 35,000  Level Honolulu Center
Fri 03:48:15 AM 22.7333 -156.5000 30° Northeast 500 575 35,000  Level Honolulu Center
Fri 03:49:16 AM 22.8500 -156.4333 28° Northeast 510 587 35,000  Level Honolulu Center
Fri 03:50:16 AM 22.9667 -156.3500 33° Northeast 490 564 35,000  Level Honolulu Center
Fri 03:51:16 AM 23.1000 -156.2833 25° Northeast 510 587 35,000  Level Honolulu Center
Fri 03:52:16 AM 23.2167 -156.2000 33° Northeast 510 587 35,000  Level Honolulu Center
Fri 03:53:16 AM 23.3500 -156.1333 25° Northeast 510 587 35,000  Level Honolulu Center
Fri 03:54:16 AM 23.4667 -156.0500 33° Northeast 510 587 35,000  Level Honolulu Center
Fri 03:55:16 AM 23.5833 -155.9667 33° Northeast 510 587 35,000  Level Honolulu Center
Fri 04:04:19 AM 24.7167 -155.2667 33° Northeast 519 597 35,000  Level Oakland Oceanic (ODAPS)
Fri 04:28:26 AM 27.6667 -153.1000 34° Northeast 518 596 35,000 22 Level Oakland Oceanic (ODAPS)
Fri 04:50:31 AM 30.2167 -151.1167 44° Northeast 518 596 36,000 38 Climbing Oakland Oceanic (ODAPS)
Fri 04:55:06 AM 30.6667 -150.6000 45° Northeast 520 598 36,000  Level Oakland Oceanic (ODAPS)
Fri 05:21:46 AM 33.3500 -147.3833 46° Northeast 525 604 36,000  Level Oakland Oceanic (ODAPS)
Fri 05:38:13 AM 35.0000 -145.2500 48° Northeast 536 617 36,000  Level Oakland Oceanic (ODAPS)
Fri 05:48:26 AM 36.0167 -143.8667 48° Northeast 542 624 36,000  Level Oakland Oceanic (ODAPS)
Fri 06:15:05 AM 38.6000 -140.0333 50° Northeast 538 619 36,000  Level Oakland Oceanic (ODAPS)
Fri 06:27:55 AM 39.8000 -138.1167 35° Northeast 524 603 36,000  Level Oakland Oceanic (ODAPS)
Fri 06:41:46 AM 41.4500 -136.5667 36° Northeast 534 615 36,000  Level Oakland Oceanic (ODAPS)
Fri 06:54:55 AM 43.0000 -135.0000 48° Northeast 530 610 36,000  Level Oakland Oceanic (ODAPS)
Fri 07:08:26 AM 44.3000 -132.9500 50° Northeast 524 603 36,000  Level Oakland Oceanic (ODAPS)
Fri 07:26:56 AM 46.0000 -130.0000 43° Northeast 511 588 36,000  Level Oakland Oceanic (ODAPS)
Fri 07:28:00 AM 46.0000 -130.0000 43° Northeast 511 588 36,000  Level Oakland Oceanic (ODAPS)
Fri 07:34:58 AM 46.8333 -128.8833 44° Northeast 512 589 36,000 -8 Level Oakland Oceanic (ODAPS)
Fri 07:40:43 AM 47.4197 -128.0444 51° Northeast 509 586 35,900  Descending Seattle Center
Fri 07:41:00 AM 47.4595 -127.9869 45° Northeast 512 589 36,000 100 Climbing FlightAware Transoceanic
Fri 07:41:43 AM 47.5214 -127.8983 44° Northeast 509 586 36,000  Level Seattle Center
Fri 07:42:00 AM 47.5632 -127.8354 45° Northeast 512 589 36,000  Level FlightAware Transoceanic
Fri 07:42:44 AM 47.6236 -127.7519 44° Northeast 509 586 36,000  Level Seattle Center
Fri 07:43:00 AM 47.6667 -127.6833 50° Northeast 512 589 36,000 -100 Level FlightAware Transoceanic
Fri 07:43:44 AM 47.7200 -127.5972 47° Northeast 510 587 35,900  Descending Seattle Center
Fri 07:44:00 AM 47.7527 -127.5280 51° Northeast 512 589 36,000 100 Climbing FlightAware Transoceanic
Fri 07:44:44 AM 47.8083 -127.4358 51° Northeast 510 587 36,000  Level Seattle Center
Fri 07:45:00 AM 47.8385 -127.3721 51° Northeast 512 589 36,000 -100 Level FlightAware Transoceanic
Fri 07:45:44 AM 47.8947 -127.2736 52° Northeast 507 583 35,900  Descending Seattle Center
Fri 07:46:00 AM 47.9241 -127.2158 51° Northeast 512 589 36,000 100 Climbing FlightAware Transoceanic
Fri 07:46:44 AM 47.9839 -127.1119 50° Northeast 506 582 36,000  Level Seattle Center
Fri 07:47:45 AM 48.0722 -126.9506 51° Northeast 506 582 36,000  Level Seattle Center
Fri 07:48:45 AM 48.1586 -126.7883 51° Northeast 502 578 36,000  Level Seattle Center
Fri 07:49:45 AM 48.2458 -126.6258 51° Northeast 502 578 36,000  Level Seattle Center
Fri 07:50:45 AM 48.3303 -126.4592 53° Northeast 502 578 36,000 -50 Level Seattle Center
Fri 07:51:45 AM 48.3933 -126.2714 63° Northeast 506 582 35,900 -875 Descending Seattle Center
Fri 07:53:09 AM 48.4667 -126.0167 66° East 500 575 33,900 -2,100 Descending Vancouver Center
Fri 07:58:05 AM 48.7631 -125.1094 65° Northeast 442 509 22,600 -2,246 Descending FlightAware ADS-B (CYVR)
Fri 07:59:07 AM 48.8137 -124.9464 65° Northeast 430 495 20,500 -2,021 Descending FlightAware ADS-B (CYVR)
Fri 07:59:40 AM 48.8431 -124.8505 65° Northeast 424 488 19,400 -1,931 Descending FlightAware ADS-B (CYVR)
Fri 08:00:34 AM 48.8871 -124.7064 65° Northeast 410 472 17,700 -2,121 Descending FlightAware ADS-B (CYVR)
Fri 08:01:19 AM 48.9275 -124.5733 65° Northeast 405 466 15,900 -2,211 Descending FlightAware ADS-B (FAKM / KIM)
Fri 08:01:50 AM 48.9484 -124.5047 65° Northeast 399 459 14,900 -1,967 Descending FlightAware ADS-B (FAKM / KIM)
Fri 08:02:20 AM 48.9728 -124.4247 65° Northeast 394 453 13,900 -2,057 Descending FlightAware ADS-B (FAKM / KIM)
Fri 08:02:25 AM 48.9791 -124.4040 66° East 393 452 13,700 -1,886 Descending FlightAware ADS-B (FAKM / KIM)
Fri 08:02:55 AM 49.0011 -124.3302 66° East 389 448 12,800 -1,781 Descending FlightAware ADS-B (FAKM / KIM)
Fri 08:03:29 AM 49.0214 -124.2627 66° East 386 444 11,800 -1,781 Descending FlightAware ADS-B (CYVR)
Fri 08:03:59 AM 49.0444 -124.1856 66° East 381 438 10,900 -1,279 Descending FlightAware ADS-B (CYVR)
Fri 08:04:30 AM 49.0695 -124.1013 65° Northeast 354 407 10,500 -600 Descending FlightAware ADS-B (FAKM / KIM)
Fri 08:05:09 AM 49.0917 -124.0270 66° East 325 374 10,200 -492 Descending FlightAware ADS-B (CYVR)
Fri 08:05:31 AM 49.1076 -123.9737 66° East 302 348 10,000 -811 Descending FlightAware ADS-B (FAKM / KIM)
Fri 08:05:46 AM 49.1167 -123.9427 66° East 292 336 9,700 -1,350 Descending FlightAware ADS-B (FAKM / KIM)
Fri 08:06:11 AM 49.1269 -123.9081 66° East 288 331 9,100 -1,600 Descending FlightAware ADS-B (CYVR)
Fri 08:06:31 AM 49.1361 -123.8765 66° East 285 328 8,500 -1,650 Descending FlightAware ADS-B (CYVR)
Fri 08:06:51 AM 49.1479 -123.8363 66° East 282 325 8,000 -1,692 Descending FlightAware ADS-B (CYVR)
Fri 08:07:10 AM 49.1585 -123.8005 66° East 273 314 7,400 -1,692 Descending FlightAware ADS-B (CYVR)
Fri 08:07:30 AM 49.1673 -123.7707 66° East 262 302 6,900 -1,610 Descending FlightAware ADS-B (CYVR)
Fri 08:07:51 AM 49.1778 -123.7353 66° East 253 291 6,300 -1,463 Descending FlightAware ADS-B (CYVR)
Fri 08:08:11 AM 49.1875 -123.7016 66° East 243 280 5,900 -1,200 Descending FlightAware ADS-B (CYVR)
Fri 08:08:16 AM 49.1926 -123.6842 66° East 237 273 5,800 -400 Descending FlightAware ADS-B (FAKM / KIM)
Fri 08:08:41 AM 49.2014 -123.6546 66° East 228 262 5,700 -419 Descending FlightAware ADS-B (CYVR)
Fri 08:08:59 AM 49.2091 -123.6284 66° East 221 254 5,500 -769 Descending FlightAware ADS-B (CYVR)
Fri 08:09:20 AM 49.2180 -123.5978 66° East 219 252 5,200 -585 Descending FlightAware ADS-B (CYVR)
Fri 08:09:40 AM 49.2249 -123.5729 74° East 219 252 5,100 -600 Descending FlightAware ADS-B (CYVR)
Fri 08:09:50 AM 49.2266 -123.5557 92° East 217 250 4,900 -1,161 Descending FlightAware ADS-B (CYVR)
Fri 08:10:11 AM 49.2248 -123.5231 96° East 216 249 4,500 -1,317 Descending FlightAware ADS-B (CYVR)
Fri 08:10:31 AM 49.2224 -123.4937 101° East 192 221 4,000 -1,231 Descending FlightAware ADS-B (CYVR)
Fri 08:10:50 AM 49.2195 -123.4696 99° East 173 199 3,700 -973 Descending FlightAware ADS-B (CYVR)
Fri 08:11:08 AM 49.2175 -123.4509 100° East 165 190 3,400 -1,091 Descending FlightAware ADS-B (CYVR)
Fri 08:11:23 AM 49.2146 -123.4254 100° East 161 185 3,100 -880 Descending FlightAware ADS-B (FAKM / KIM)
Fri 08:12:23 AM 49.2081 -123.3674 100° East 148 170 2,300 -767 Descending FlightAware ADS-B (CYVR)
Fri 08:12:49 AM 49.2056 -123.3452 100° East 143 165 2,000 -735 Descending FlightAware ADS-B (CYVR)
Fri 08:13:12 AM 49.2028 -123.3199 99° East 142 163 1,700 -900 Descending FlightAware ADS-B (CYVR)
Fri 08:13:29 AM 49.2007 -123.3014 100° East 142 163 1,400 -769 Descending FlightAware ADS-B (CYVR)
Fri 08:13:51 AM 49.1987 -123.2834 99° East 133 153 1,200 -692 Descending FlightAware ADS-B (CYVR)
Fri 08:14:21 AM 49.1952 -123.2532 100° East 129 148 800 -783 Descending FlightAware ADS-B (CYVR)
Fri 08:14:37 AM 49.1936 -123.2385 100° East 128 147 600 -667 Descending FlightAware ADS-B (CYVR)
Fri 08:14:57 AM 49.1915 -123.2208 99° East 132 152 400 -600 Descending FlightAware ADS-B (CYVR)

Login

Don't have an account? Register now (free) for customized features, flight alerts, and more!